Time;durP1;ratioP1;P1;durP2;ratioP2;P2;SDS_P1;SDS_P2;PMS_P1;PMS_P2;Temp;Humidity;BMP_temperature;BMP_pressure;BME280_temperature;BME280_humidity;BME280_pressure;Samples;Min_cycle;Max_cycle;Signal;HPM_P1;HPM_P2
2023/10/08 00:02:52;;;;;;;14.52;4.43;;;20.30;55.40;;;;;;5982274;29;20038;-66
2023/10/08 00:05:53;;;;;;;10.38;4.82;;;20.30;55.50;;;;;;5981322;29;20042;-66
2023/10/08 00:08:59;;;;;;;10.65;4.50;;;20.30;55.60;;;;;;5980512;29;20052;-66
2023/10/08 00:12:01;;;;;;;12.23;4.78;;;20.20;55.60;;;;;;5987981;29;20045;-66
2023/10/08 00:15:07;;;;;;;10.05;4.25;;;20.20;55.80;;;;;;6004103;29;20372;-66
2023/10/08 00:18:11;;;;;;;9.60;4.78;;;20.20;55.90;;;;;;5983907;29;20043;-66
2023/10/08 00:24:13;;;;;;;9.48;4.25;;;20.10;56.40;;;;;;5981690;29;20042;-66
2023/10/08 00:27:14;;;;;;;10.27;4.15;;;20.10;56.50;;;;;;5949704;29;20050;-66
2023/10/08 00:30:17;;;;;;;9.13;3.60;;;20.00;56.60;;;;;;5980945;29;20185;-66
2023/10/08 00:33:19;;;;;;;11.00;3.80;;;20.00;56.80;;;;;;5981468;29;20034;-66
2023/10/08 00:36:20;;;;;;;8.95;4.28;;;20.00;57.00;;;;;;5981291;29;20080;-67
2023/10/08 00:39:24;;;;;;;8.35;3.35;;;19.90;57.10;;;;;;5981073;29;20110;-67
2023/10/08 00:42:25;;;;;;;9.50;3.70;;;19.90;57.40;;;;;;5981248;29;20054;-66
2023/10/08 00:45:30;;;;;;;9.68;4.60;;;19.70;57.60;;;;;;5981027;29;20225;-66
2023/10/08 00:48:35;;;;;;;8.88;3.60;;;19.70;57.90;;;;;;5960497;29;20034;-65
2023/10/08 00:51:40;;;;;;;7.38;3.42;;;19.60;58.20;;;;;;5961079;29;20053;-67
2023/10/08 00:58:11;;;;;;;7.53;3.92;;;19.50;58.50;;;;;;5980932;29;20460;-67
2023/10/08 01:01:16;;;;;;;8.18;4.10;;;19.50;58.50;;;;;;5963990;29;20040;-67
2023/10/08 01:04:26;;;;;;;12.02;4.30;;;19.40;58.60;;;;;;5980751;29;20118;-66
2023/10/08 01:07:27;;;;;;;9.60;3.80;;;19.40;58.60;;;;;;5979136;29;20190;-67
2023/10/08 01:10:29;;;;;;;11.25;4.60;;;19.40;58.70;;;;;;5980843;29;20110;-67
2023/10/08 01:13:36;;;;;;;16.50;4.82;;;19.40;58.60;;;;;;5989798;29;20039;-66
2023/10/08 01:16:39;;;;;;;7.53;3.63;;;19.40;58.70;;;;;;5981044;29;20121;-65
2023/10/08 01:19:40;;;;;;;11.60;4.40;;;19.40;58.60;;;;;;5980220;29;20095;-66
2023/10/08 01:22:41;;;;;;;16.83;4.15;;;19.40;58.60;;;;;;5980245;29;20038;-65
2023/10/08 01:25:42;;;;;;;15.20;4.40;;;19.40;58.50;;;;;;5963812;29;20069;-66
2023/10/08 01:28:43;;;;;;;15.98;4.32;;;19.50;58.50;;;;;;5979998;29;20506;-67
2023/10/08 01:31:46;;;;;;;10.75;4.97;;;19.40;58.50;;;;;;5963331;29;20237;-67
2023/10/08 01:34:47;;;;;;;9.98;3.83;;;18.90;58.30;;;;;;5980531;29;20039;-67
2023/10/08 01:37:49;;;;;;;15.30;4.55;;;19.40;58.50;;;;;;5980264;29;20030;-67
2023/10/08 01:40:51;;;;;;;8.68;4.10;;;19.40;58.50;;;;;;5978425;29;20045;-66
2023/10/08 01:43:52;;;;;;;8.73;3.95;;;19.40;58.50;;;;;;5963541;29;20049;-66
2023/10/08 01:46:58;;;;;;;10.60;4.95;;;19.40;58.40;;;;;;5979812;29;20054;-67
2023/10/08 01:50:05;;;;;;;16.50;4.53;;;19.40;58.40;;;;;;5976773;29;20120;-67
2023/10/08 01:53:09;;;;;;;19.35;7.60;;;19.40;58.40;;;;;;6000609;29;20383;-65
2023/10/08 01:56:10;;;;;;;34.03;11.93;;;19.50;58.40;;;;;;5985609;29;20129;-67
2023/10/08 01:59:13;;;;;;;71.97;23.00;;;19.40;58.50;;;;;;5970371;29;20072;-66
2023/10/08 02:02:17;;;;;;;51.25;17.85;;;19.40;58.60;;;;;;5964337;29;20052;-65
2023/10/08 02:05:19;;;;;;;26.15;10.60;;;19.40;58.60;;;;;;5978271;29;20046;-67
2023/10/08 02:08:20;;;;;;;22.20;7.28;;;19.40;58.60;;;;;;5979399;29;20393;-66
2023/10/08 02:11:23;;;;;;;12.82;5.97;;;19.30;58.60;;;;;;5976602;29;20133;-66
2023/10/08 02:14:24;;;;;;;9.68;4.85;;;19.30;58.70;;;;;;5990302;29;20128;-66
2023/10/08 02:17:25;;;;;;;9.95;5.18;;;19.30;58.80;;;;;;5989834;29;20349;-67
2023/10/08 02:20:27;;;;;;;8.65;4.65;;;19.30;58.90;;;;;;6006198;29;20075;-67
2023/10/08 02:23:28;;;;;;;12.32;3.50;;;19.20;58.90;;;;;;6006860;29;20173;-66
2023/10/08 02:26:30;;;;;;;7.10;3.63;;;19.20;58.90;;;;;;5990000;29;20045;-67
2023/10/08 02:29:32;;;;;;;7.63;3.45;;;19.20;59.00;;;;;;5959466;29;20068;-67
2023/10/08 02:32:33;;;;;;;9.23;3.92;;;19.20;59.00;;;;;;5989793;29;20038;-67
2023/10/08 02:35:33;;;;;;;9.35;4.20;;;19.10;59.10;;;;;;6005217;29;20161;-66
2023/10/08 02:38:37;;;;;;;7.88;3.88;;;19.10;59.30;;;;;;6006284;29;20281;-68
2023/10/08 02:41:41;;;;;;;15.23;3.90;;;19.00;59.40;;;;;;6005634;29;20124;-67
2023/10/08 02:44:42;;;;;;;9.43;4.13;;;18.90;59.50;;;;;;5966869;29;20042;-66
2023/10/08 02:47:46;;;;;;;7.82;3.38;;;18.90;59.60;;;;;;5967241;29;20038;-66
2023/10/08 02:50:47;;;;;;;10.35;4.03;;;18.90;59.70;;;;;;5994436;29;20384;-66
2023/10/08 02:53:50;;;;;;;7.53;4.20;;;18.80;59.80;;;;;;5996945;29;20073;-66
2023/10/08 02:56:57;;;;;;;10.45;3.30;;;18.80;60.00;;;;;;5982987;29;20042;-67
2023/10/08 02:59:58;;;;;;;6.07;3.07;;;18.70;60.00;;;;;;5966247;29;20045;-66
2023/10/08 03:03:02;;;;;;;7.70;4.15;;;18.60;59.60;;;;;;5981132;29;20595;-65
2023/10/08 03:06:03;;;;;;;10.65;3.47;;;18.60;60.20;;;;;;5966125;29;20042;-66
2023/10/08 03:09:04;;;;;;;7.53;3.47;;;18.60;59.80;;;;;;5966214;29;20851;-66
2023/10/08 03:12:08;;;;;;;9.40;3.72;;;18.50;60.40;;;;;;5997418;29;20033;-67
2023/10/08 03:15:13;;;;;;;6.80;3.25;;;18.50;60.50;;;;;;6005416;29;20026;-66
2023/10/08 03:18:14;;;;;;;8.18;4.18;;;18.40;60.60;;;;;;6004838;29;20049;-66
2023/10/08 03:21:33;;;;;;;9.48;4.18;;;18.40;60.80;;;;;;6003495;29;20042;-66
2023/10/08 03:27:41;;;;;;;11.10;5.18;;;18.30;61.30;;;;;;6004991;29;20190;-67
2023/10/08 03:30:50;;;;;;;9.43;4.20;;;18.20;61.50;;;;;;5988390;29;20462;-66
2023/10/08 03:33:51;;;;;;;9.63;4.90;;;18.20;61.60;;;;;;5988649;29;20116;-66
2023/10/08 03:36:59;;;;;;;9.80;4.43;;;18.20;61.90;;;;;;5988249;29;20125;-66
2023/10/08 03:40:01;;;;;;;9.13;4.27;;;18.20;61.90;;;;;;5987874;29;20428;-66
2023/10/08 03:43:02;;;;;;;9.02;4.25;;;18.20;61.90;;;;;;5982304;29;20030;-66
2023/10/08 03:46:05;;;;;;;11.15;4.18;;;18.20;61.90;;;;;;5981048;29;20041;-66
2023/10/08 03:49:14;;;;;;;12.20;5.07;;;18.10;61.80;;;;;;5989875;29;20132;-67
2023/10/08 03:52:15;;;;;;;9.43;4.65;;;18.10;61.80;;;;;;6004165;29;20042;-65
2023/10/08 03:58:29;;;;;;;11.98;4.45;;;18.10;61.80;;;;;;6004526;29;20041;-66
2023/10/08 04:01:32;;;;;;;9.13;4.65;;;18.00;61.80;;;;;;5988097;29;20046;-67
2023/10/08 04:04:52;;;;;;;10.75;4.03;;;18.10;62.00;;;;;;5981878;29;20064;-65
2023/10/08 04:14:20;;;;;;;10.65;4.15;;;17.10;61.40;;;;;;6004740;29;20034;-66
2023/10/08 04:17:22;;;;;;;10.80;4.47;;;17.90;62.00;;;;;;6004557;29;20061;-67
2023/10/08 04:20:38;;;;;;;9.75;4.75;;;17.90;62.10;;;;;;5987409;29;20114;-66
2023/10/08 04:23:44;;;;;;;9.55;4.20;;;17.80;62.20;;;;;;6004401;29;20037;-66
2023/10/08 04:26:45;;;;;;;7.80;3.53;;;17.80;62.40;;;;;;5972709;29;20107;-66
2023/10/08 04:29:49;;;;;;;16.08;4.70;;;17.70;62.60;;;;;;6003338;29;20046;-67
2023/10/08 04:32:52;;;;;;;8.27;4.43;;;17.70;62.70;;;;;;5986948;29;20502;-67
2023/10/08 04:35:56;;;;;;;9.13;4.07;;;17.70;62.70;;;;;;5973219;29;20420;-67
2023/10/08 04:39:04;;;;;;;11.38;4.22;;;17.70;62.80;;;;;;5980904;29;20133;-65
2023/10/08 04:42:12;;;;;;;9.25;4.30;;;17.60;63.70;;;;;;5981635;29;20095;-67
2023/10/08 04:45:13;;;;;;;10.80;4.65;;;17.60;62.90;;;;;;5981545;29;20121;-67
2023/10/08 04:48:20;;;;;;;14.30;5.20;;;17.60;62.90;;;;;;5982309;29;20034;-69
2023/10/08 04:51:22;;;;;;;13.93;4.93;;;17.60;62.90;;;;;;6003857;29;20112;-66
2023/10/08 04:54:30;;;;;;;10.40;4.35;;;17.60;62.80;;;;;;6003965;29;20037;-67
2023/10/08 04:57:34;;;;;;;9.48;4.03;;;17.60;62.80;;;;;;5996176;29;20038;-65
2023/10/08 05:00:53;;;;;;;16.58;4.75;;;17.60;62.80;;;;;;5980980;29;20065;-66
2023/10/08 05:07:17;;;;;;;15.95;4.93;;;17.60;62.70;;;;;;5980887;29;20034;-66
2023/10/08 05:13:32;;;;;;;9.98;4.43;;;17.60;62.90;;;;;;5980691;29;20034;-66
2023/10/08 05:16:43;;;;;;;8.18;3.95;;;17.60;62.90;;;;;;5980962;29;20467;-66
2023/10/08 05:20:17;;;;;;;10.32;4.40;;;17.50;63.00;;;;;;5980414;29;20022;-68
2023/10/08 05:26:41;;;;;;;9.65;3.80;;;17.50;63.20;;;;;;5964082;29;20072;-66
2023/10/08 05:30:15;;;;;;;8.40;4.13;;;17.40;63.20;;;;;;5964022;29;20107;-67
2023/10/08 05:33:25;;;;;;;9.65;4.07;;;17.40;63.20;;;;;;5980329;29;20147;-66
2023/10/08 05:36:35;;;;;;;12.70;4.13;;;17.40;63.30;;;;;;5963831;29;20057;-66
2023/10/08 05:39:42;;;;;;;12.27;5.07;;;17.40;64.20;;;;;;5979951;29;20038;-66
2023/10/08 05:43:00;;;;;;;7.00;3.67;;;17.30;63.50;;;;;;5963538;29;20113;-66
2023/10/08 05:52:50;;;;;;;9.93;4.05;;;17.10;64.30;;;;;;5963340;29;20088;-67
2023/10/08 05:56:01;;;;;;;;;;;17.10;64.50;;;;;;5980123;29;20041;-67
2023/10/08 05:59:15;;;;;;;10.40;3.60;;;17.10;64.60;;;;;;5963188;29;19917;-67
2023/10/08 06:05:43;;;;;;;9.43;3.95;;;17.10;64.40;;;;;;5979883;29;20038;-66
2023/10/08 06:09:06;;;;;;;8.57;4.43;;;17.10;64.30;;;;;;5979924;29;20050;-66
2023/10/08 06:12:10;;;;;;;9.68;4.72;;;17.10;64.30;;;;;;5994380;29;20042;-66
2023/10/08 06:15:12;;;;;;;8.38;3.95;;;17.10;64.30;;;;;;6001128;29;20487;-67
2023/10/08 06:18:14;;;;;;;10.73;3.97;;;17.10;64.30;;;;;;6000987;29;20091;-68
2023/10/08 06:21:15;;;;;;;12.07;4.22;;;17.10;64.50;;;;;;6002476;29;20535;-66
2023/10/08 06:24:17;;;;;;;10.50;4.18;;;17.10;64.60;;;;;;5985887;29;20077;-68
2023/10/08 06:27:19;;;;;;;7.78;4.30;;;17.10;64.70;;;;;;5995368;29;20119;-65
2023/10/08 06:30:21;;;;;;;8.98;4.22;;;17.10;64.60;;;;;;5979622;29;20119;-66
2023/10/08 06:33:25;;;;;;;9.88;3.33;;;17.10;64.60;;;;;;5963477;29;20333;-66
2023/10/08 06:36:28;;;;;;;9.15;4.07;;;17.10;64.60;;;;;;5979570;29;20122;-66
2023/10/08 06:39:47;;;;;;;14.75;4.20;;;17.10;64.50;;;;;;5962676;29;20412;-66
2023/10/08 06:42:51;;;;;;;;;;;17.10;64.40;;;;;;5963215;29;20043;-67
2023/10/08 06:45:52;;;;;;;9.20;4.20;;;17.20;64.30;;;;;;5963301;29;19923;-67
2023/10/08 06:48:53;;;;;;;10.38;4.05;;;17.30;64.00;;;;;;5985105;29;20454;-65
2023/10/08 06:51:54;;;;;;;18.70;4.75;;;17.30;64.00;;;;;;5981596;29;20042;-68
2023/10/08 06:54:55;;;;;;;10.25;4.50;;;17.40;63.90;;;;;;5983416;29;20042;-68
2023/10/08 06:57:56;;;;;;;9.48;4.25;;;17.50;63.80;;;;;;5967020;29;20065;-67
2023/10/08 07:00:58;;;;;;;14.85;4.78;;;17.50;63.70;;;;;;5983205;29;20049;-66
2023/10/08 07:04:06;;;;;;;11.82;4.53;;;17.50;63.50;;;;;;5983379;29;20411;-67
2023/10/08 07:07:09;;;;;;;10.88;3.97;;;17.60;63.30;;;;;;5966560;29;20053;-67
2023/10/08 07:10:10;;;;;;;8.60;3.80;;;17.60;63.20;;;;;;5966502;29;20072;-67
2023/10/08 07:13:11;;;;;;;16.95;4.75;;;17.70;63.20;;;;;;5966602;29;20629;-68
2023/10/08 07:16:12;;;;;;;8.05;4.05;;;17.80;62.90;;;;;;5981509;29;20034;-69
2023/10/08 07:19:17;;;;;;;9.55;4.30;;;17.80;62.60;;;;;;5966319;29;20034;-67
2023/10/08 07:22:21;;;;;;;19.17;4.97;;;17.90;62.50;;;;;;5982775;29;20046;-67
2023/10/08 07:25:22;;;;;;;13.05;5.07;;;18.00;62.40;;;;;;5967088;29;20066;-69
2023/10/08 07:28:25;;;;;;;11.27;4.95;;;18.10;62.30;;;;;;5981796;29;20053;-68
2023/10/08 07:31:28;;;;;;;12.88;4.85;;;18.20;61.90;;;;;;5983276;29;20088;-68
2023/10/08 07:34:31;;;;;;;8.95;4.47;;;18.30;61.60;;;;;;5983453;29;20035;-68
2023/10/08 07:37:32;;;;;;;11.05;4.25;;;18.30;61.20;;;;;;5982036;29;20037;-66
2023/10/08 07:40:37;;;;;;;13.07;4.78;;;18.40;61.20;;;;;;5982835;29;20039;-67
2023/10/08 07:43:38;;;;;;;12.40;5.28;;;18.50;61.00;;;;;;5983116;29;20049;-67
2023/10/08 07:46:39;;;;;;;12.23;4.78;;;18.50;60.80;;;;;;5982924;29;20462;-65
2023/10/08 07:49:43;;;;;;;10.40;4.88;;;18.60;60.60;;;;;;5982874;29;20046;-66
2023/10/08 07:52:44;;;;;;;11.18;4.50;;;18.70;60.40;;;;;;5983215;29;20106;-67
2023/10/08 07:55:48;;;;;;;13.38;4.45;;;18.90;60.20;;;;;;5982883;29;20046;-66
2023/10/08 07:58:56;;;;;;;15.93;4.72;;;19.00;59.80;;;;;;5982622;29;20104;-66
2023/10/08 08:01:57;;;;;;;11.10;4.17;;;19.10;59.60;;;;;;5983200;29;20045;-68
2023/10/08 08:04:58;;;;;;;9.13;4.05;;;19.20;59.80;;;;;;5980131;29;20038;-65
2023/10/08 08:08:05;;;;;;;9.05;4.32;;;19.40;59.20;;;;;;5982380;29;20415;-65
2023/10/08 08:11:11;;;;;;;12.32;4.22;;;19.50;59.00;;;;;;5988896;29;20058;-66
2023/10/08 08:14:24;;;;;;;10.35;3.85;;;19.70;58.70;;;;;;6005105;29;20081;-67
2023/10/08 08:17:25;;;;;;;14.48;3.97;;;19.80;58.40;;;;;;5995367;29;20030;-66
2023/10/08 08:20:38;;;;;;;11.05;4.50;;;20.00;58.10;;;;;;5981818;29;20081;-66
2023/10/08 08:23:40;;;;;;;11.00;4.13;;;20.20;57.70;;;;;;5975742;29;20503;-67
2023/10/08 08:27:00;;;;;;;11.73;4.25;;;20.30;57.00;;;;;;5965762;29;20518;-65
2023/10/08 08:30:15;;;;;;;9.57;3.88;;;20.40;56.60;;;;;;5982318;29;20050;-65
2023/10/08 08:33:22;;;;;;;10.35;4.10;;;20.50;56.30;;;;;;5981992;29;20034;-68
2023/10/08 08:36:24;;;;;;;10.20;3.88;;;20.70;55.70;;;;;;5982065;29;20476;-68
2023/10/08 08:39:28;;;;;;;9.13;4.38;;;20.80;55.40;;;;;;5981291;29;20092;-68
2023/10/08 08:42:31;;;;;;;10.07;4.03;;;20.80;55.40;;;;;;5981775;29;20061;-66
2023/10/08 08:45:35;;;;;;;11.68;3.95;;;21.00;55.30;;;;;;5949901;29;20124;-69
2023/10/08 08:48:38;;;;;;;10.98;4.80;;;21.10;55.10;;;;;;5977621;29;20038;-67
2023/10/08 08:51:41;;;;;;;19.23;6.40;;;21.30;54.90;;;;;;5958939;29;20587;-67
2023/10/08 08:54:42;;;;;;;18.45;6.50;;;21.40;54.60;;;;;;5958882;29;20034;-67
2023/10/08 08:57:47;;;;;;;6.30;3.55;;;21.60;54.40;;;;;;5958547;29;20035;-67
2023/10/08 09:00:52;;;;;;;9.75;4.15;;;21.70;53.90;;;;;;5969823;29;20441;-68
2023/10/08 09:04:01;;;;;;;12.40;3.60;;;21.90;53.40;;;;;;5980245;29;20044;-65
2023/10/08 09:07:05;;;;;;;15.45;4.20;;;22.00;52.90;;;;;;5981247;29;20801;-67
2023/10/08 09:10:12;;;;;;;10.07;3.80;;;22.00;52.50;;;;;;5980829;29;20069;-67
2023/10/08 09:13:13;;;;;;;8.85;3.47;;;22.10;51.90;;;;;;6002956;29;20042;-66
2023/10/08 09:16:16;;;;;;;9.52;3.83;;;22.10;52.00;;;;;;5979434;29;20498;-69
2023/10/08 09:19:21;;;;;;;18.15;7.22;;;22.20;52.00;;;;;;5981029;29;20037;-67
2023/10/08 09:22:22;;;;;;;18.95;7.40;;;22.30;51.60;;;;;;5977157;29;20046;-67
2023/10/08 09:25:24;;;;;;;9.10;3.72;;;22.40;51.30;;;;;;5980371;29;20176;-67
2023/10/08 09:28:25;;;;;;;9.23;3.92;;;22.50;51.10;;;;;;5980250;29;20034;-66
2023/10/08 09:31:35;;;;;;;11.20;4.55;;;22.60;50.60;;;;;;5963453;29;20117;-67
2023/10/08 09:34:36;;;;;;;20.35;7.43;;;22.60;50.30;;;;;;5980850;29;20088;-68
2023/10/08 09:37:39;;;;;;;19.45;5.97;;;22.70;49.90;;;;;;5964243;29;20124;-68
2023/10/08 09:40:44;;;;;;;15.30;5.55;;;22.80;49.80;;;;;;5963274;29;20511;-67
2023/10/08 09:43:46;;;;;;;11.82;3.67;;;22.80;49.60;;;;;;5963382;29;20547;-68
2023/10/08 09:46:53;;;;;;;13.65;5.68;;;22.90;49.50;;;;;;5980327;29;20460;-67
2023/10/08 09:50:01;;;;;;;22.85;8.95;;;22.90;49.00;;;;;;5948785;29;20091;-65
2023/10/08 09:53:51;;;;;;;17.95;5.82;;;23.00;48.90;;;;;;5980404;29;20474;-68
2023/10/08 09:57:03;;;;;;;10.85;4.47;;;23.10;48.70;;;;;;5882093;30;20040;-67
2023/10/08 10:00:15;;;;;;;9.20;3.90;;;23.20;48.60;;;;;;5879281;30;20040;-66
2023/10/08 10:03:18;;;;;;;13.15;5.55;;;23.20;48.80;;;;;;5894759;30;20126;-67
2023/10/08 10:06:20;;;;;;;10.40;4.93;;;23.30;48.80;;;;;;5909132;30;20059;-68
2023/10/08 10:09:24;;;;;;;19.80;5.72;;;23.40;49.00;;;;;;5909059;30;20058;-67
2023/10/08 10:12:26;;;;;;;11.13;4.07;;;23.50;49.00;;;;;;5893325;30;20067;-67
2023/10/08 10:15:30;;;;;;;9.05;3.65;;;23.60;49.10;;;;;;5909097;30;20168;-67
2023/10/08 10:18:33;;;;;;;14.70;5.30;;;23.80;48.80;;;;;;5908867;30;20074;-68
2023/10/08 10:21:34;;;;;;;13.65;4.80;;;24.20;48.10;;;;;;5909195;30;20043;-66
2023/10/08 10:24:41;;;;;;;14.35;6.40;;;24.50;47.30;;;;;;5894377;30;20068;-67
2023/10/08 10:28:08;;;;;;;10.85;4.60;;;24.80;46.40;;;;;;5910496;30;20047;-67
2023/10/08 10:31:19;;;;;;;10.15;3.47;;;25.10;45.60;;;;;;5904325;30;20940;-68
2023/10/08 10:34:30;;;;;;;12.57;3.70;;;25.30;44.80;;;;;;5984574;29;20038;-67
2023/10/08 10:37:53;;;;;;;8.77;3.35;;;25.60;44.60;;;;;;6005110;29;20458;-67
2023/10/08 10:40:59;;;;;;;9.23;4.05;;;25.60;44.20;;;;;;6004929;29;20114;-68
2023/10/08 10:44:08;;;;;;;9.80;3.60;;;25.80;44.00;;;;;;6006169;29;20046;-67
2023/10/08 10:50:26;;;;;;;6.97;3.38;;;26.30;43.60;;;;;;6000073;29;20503;-67
2023/10/08 10:53:44;;;;;;;12.10;4.95;;;26.60;43.30;;;;;;5979495;29;20117;-66
2023/10/08 10:56:47;;;;;;;8.13;3.80;;;26.90;42.90;;;;;;5976292;29;20078;-67
2023/10/08 10:59:53;;;;;;;12.93;3.70;;;27.20;42.30;;;;;;5980128;29;20570;-67
2023/10/08 11:02:59;;;;;;;10.07;4.03;;;27.40;41.50;;;;;;6000552;29;20543;-67
2023/10/08 11:06:05;;;;;;;9.05;3.28;;;27.60;41.10;;;;;;5998134;29;20096;-68
2023/10/08 11:09:14;;;;;;;8.82;3.55;;;27.90;40.70;;;;;;5996153;29;20484;-67
2023/10/08 11:12:18;;;;;;;7.35;3.00;;;28.40;39.80;;;;;;5998747;29;20041;-67
2023/10/08 11:15:22;;;;;;;7.47;3.33;;;28.80;38.30;;;;;;6006350;29;20038;-68
2023/10/08 11:18:28;;;;;;;6.93;3.17;;;29.30;37.70;;;;;;6005476;29;20558;-67
2023/10/08 11:21:33;;;;;;;6.13;3.05;;;29.70;36.60;;;;;;6005434;29;20037;-68
2023/10/08 11:55:47;;;;;;;7.40;3.50;;;33.50;31.50;;;;;;5980357;29;20034;-66
2023/10/08 11:58:49;;;;;;;10.82;3.22;;;34.20;30.30;;;;;;5981326;29;20039;-67
2023/10/08 12:01:51;;;;;;;6.93;3.50;;;34.70;30.30;;;;;;5987054;29;20057;-68
2023/10/08 12:04:52;;;;;;;7.93;3.17;;;35.30;28.90;;;;;;5991284;29;20034;-67
2023/10/08 12:07:57;;;;;;;11.18;4.03;;;35.60;28.50;;;;;;5975308;29;20036;-68
2023/10/08 12:11:00;;;;;;;8.93;3.20;;;35.90;27.60;;;;;;5992850;29;20609;-68
2023/10/08 12:14:00;;;;;;;8.63;3.70;;;36.10;27.40;;;;;;5991583;29;20151;-67
2023/10/08 12:17:10;;;;;;;8.40;3.30;;;36.40;27.20;;;;;;5991758;29;20029;-66
2023/10/08 12:20:34;;;;;;;8.20;3.58;;;36.70;26.80;;;;;;5991353;29;20484;-67
2023/10/08 12:23:33;;;;;;;11.50;3.17;;;37.00;26.70;;;;;;5991631;29;20123;-69
2023/10/08 12:26:34;;;;;;;8.82;3.17;;;37.50;26.10;;;;;;6002682;29;20034;-66
2023/10/08 12:29:35;;;;;;;8.68;3.22;;;37.20;25.70;;;;;;5982288;29;20031;-67
2023/10/08 12:32:42;;;;;;;11.60;3.22;;;37.20;25.80;;;;;;5981656;29;20039;-69
2023/10/08 12:35:44;;;;;;;10.13;3.85;;;36.80;26.10;;;;;;5981296;29;20045;-67
2023/10/08 12:38:47;;;;;;;11.10;4.70;;;36.10;26.50;;;;;;5980980;29;20140;-65
2023/10/08 12:41:48;;;;;;;9.50;3.42;;;35.60;27.00;;;;;;5981409;29;20065;-68
2023/10/08 12:44:49;;;;;;;7.55;3.72;;;35.50;27.10;;;;;;5981419;29;20799;-66
2023/10/08 12:47:51;;;;;;;8.23;3.08;;;35.70;26.80;;;;;;5986262;29;20071;-68
2023/10/08 12:50:53;;;;;;;13.25;3.67;;;35.80;26.30;;;;;;5990317;29;20493;-67
2023/10/08 12:54:03;;;;;;;6.97;3.97;;;35.20;26.60;;;;;;5990419;29;20033;-67
2023/10/08 12:57:08;;;;;;;7.57;3.28;;;34.50;27.30;;;;;;6003937;29;20479;-67
2023/10/08 13:00:10;;;;;;;10.82;4.65;;;33.70;28.00;;;;;;6003473;29;20068;-67
2023/10/08 13:03:15;;;;;;;8.13;4.45;;;33.10;28.50;;;;;;5982130;29;20061;-66
2023/10/08 13:06:22;;;;;;;9.60;4.45;;;32.50;29.00;;;;;;5980925;29;20096;-69
2023/10/08 13:09:24;;;;;;;;;;;32.00;29.60;;;;;;5980863;29;20053;-66
2023/10/08 13:12:24;;;;;;;9.45;3.58;;;31.70;30.00;;;;;;5997792;29;20359;-67
2023/10/08 13:15:26;;;;;;;10.27;3.67;;;31.30;30.90;;;;;;6001812;29;20032;-67
2023/10/08 13:18:26;;;;;;;5.88;3.10;;;31.00;30.60;;;;;;5986793;29;20387;-67
2023/10/08 13:21:28;;;;;;;10.75;3.40;;;30.80;31.10;;;;;;6003192;29;20033;-67
2023/10/08 13:24:29;;;;;;;9.85;3.55;;;30.60;31.40;;;;;;5975217;29;20038;-66
2023/10/08 13:27:31;;;;;;;12.27;3.63;;;30.30;31.70;;;;;;5980665;29;20479;-67
2023/10/08 13:30:32;;;;;;;6.55;3.53;;;30.10;32.50;;;;;;5963691;29;20129;-67
2023/10/08 13:33:33;;;;;;;7.97;4.78;;;30.00;32.30;;;;;;5980221;29;20079;-66
2023/10/08 13:36:38;;;;;;;8.93;3.75;;;29.80;32.50;;;;;;5980009;29;20047;-66
2023/10/08 13:39:40;;;;;;;7.50;3.47;;;29.80;32.80;;;;;;5979671;29;20041;-67
2023/10/08 13:42:42;;;;;;;7.60;3.22;;;29.60;33.00;;;;;;5980221;29;20042;-66
2023/10/08 13:45:44;;;;;;;7.15;3.53;;;29.50;33.20;;;;;;5980337;29;20603;-65
2023/10/08 13:48:47;;;;;;;16.77;3.58;;;29.40;33.30;;;;;;5984722;29;20039;-66
2023/10/08 13:51:55;;;;;;;14.48;3.35;;;29.30;33.40;;;;;;6002454;29;20093;-66
2023/10/08 13:54:58;;;;;;;7.90;3.30;;;29.30;33.50;;;;;;6002587;29;20073;-66
2023/10/08 13:58:00;;;;;;;8.15;3.55;;;29.20;33.60;;;;;;5994323;29;20036;-68
2023/10/08 14:01:18;;;;;;;10.73;4.30;;;29.10;33.60;;;;;;5980120;29;20030;-67
2023/10/08 14:04:27;;;;;;;5.27;3.10;;;29.10;33.60;;;;;;5970323;29;20042;-68
2023/10/08 14:07:28;;;;;;;8.13;3.22;;;29.10;33.40;;;;;;5984087;29;20075;-66
2023/10/08 14:10:29;;;;;;;12.27;3.35;;;29.00;33.10;;;;;;5986143;29;20038;-68
2023/10/08 14:13:32;;;;;;;15.90;2.92;;;29.00;33.00;;;;;;6007066;29;20155;-68
2023/10/08 14:16:41;;;;;;;5.72;2.67;;;29.00;32.80;;;;;;6007044;29;20502;-66
2023/10/08 14:19:46;;;;;;;6.85;2.72;;;29.00;32.50;;;;;;6006719;29;20468;-66
2023/10/08 14:22:52;;;;;;;11.45;4.07;;;28.90;32.50;;;;;;6000060;29;20456;-69
2023/10/08 14:25:57;;;;;;;7.72;2.95;;;28.90;32.50;;;;;;5989092;29;20125;-65
2023/10/08 14:29:07;;;;;;;7.50;3.20;;;28.80;32.40;;;;;;5989395;29;20046;-67
2023/10/08 14:32:08;;;;;;;8.00;3.20;;;28.80;32.50;;;;;;6006692;29;20108;-67
2023/10/08 14:45:13;;;;;;;10.68;3.58;;;28.70;32.70;;;;;;5950448;29;20057;-67
2023/10/08 14:48:14;;;;;;;10.45;2.90;;;28.70;32.80;;;;;;5936232;29;20141;-66
2023/10/08 14:51:19;;;;;;;6.70;2.95;;;28.70;32.90;;;;;;5957863;29;20144;-67
2023/10/08 14:54:20;;;;;;;7.72;3.10;;;28.70;33.10;;;;;;5951627;29;20071;-67
2023/10/08 14:57:21;;;;;;;7.05;2.63;;;28.70;33.10;;;;;;5935428;30;20108;-68
2023/10/08 15:00:24;;;;;;;9.70;4.32;;;28.70;33.10;;;;;;5934924;30;20130;-66
2023/10/08 15:03:26;;;;;;;8.65;2.78;;;28.70;33.20;;;;;;5935352;30;20043;-66
2023/10/08 15:06:28;;;;;;;5.75;2.47;;;28.60;33.10;;;;;;5935059;30;20051;-67
2023/10/08 15:09:30;;;;;;;6.85;3.05;;;28.60;33.10;;;;;;5934986;30;20038;-67
2023/10/08 15:12:34;;;;;;;11.02;3.38;;;28.60;33.30;;;;;;5937309;29;20093;-67
2023/10/08 15:15:35;;;;;;;8.65;3.08;;;28.60;33.50;;;;;;5955266;29;20073;-67
2023/10/08 15:18:41;;;;;;;7.18;3.03;;;28.60;33.70;;;;;;5935924;29;20532;-67
2023/10/08 15:21:43;;;;;;;7.80;2.90;;;28.50;33.80;;;;;;5960191;29;20034;-68
2023/10/08 15:24:45;;;;;;;7.43;3.28;;;28.50;33.90;;;;;;5960109;29;20035;-66
2023/10/08 15:27:49;;;;;;;9.48;2.72;;;28.50;34.10;;;;;;5960052;29;20117;-69
2023/10/08 15:30:50;;;;;;;7.82;3.35;;;28.50;34.20;;;;;;5943186;29;20053;-65
2023/10/08 15:33:51;;;;;;;9.02;3.47;;;28.50;34.20;;;;;;5960014;29;20065;-67
2023/10/08 15:36:56;;;;;;;10.90;3.80;;;28.40;34.30;;;;;;5960382;29;20041;-70
2023/10/08 15:39:57;;;;;;;10.23;3.53;;;28.40;34.40;;;;;;5959918;29;20091;-66
2023/10/08 15:42:58;;;;;;;10.93;3.30;;;28.40;34.40;;;;;;5959901;29;20043;-69
2023/10/08 15:45:59;;;;;;;22.80;5.22;;;28.40;34.40;;;;;;5959856;29;20096;-68
2023/10/08 15:49:02;;;;;;;7.28;3.28;;;28.30;34.40;;;;;;5973266;29;20041;-67
2023/10/08 15:52:04;;;;;;;9.45;3.35;;;28.30;34.50;;;;;;6004833;29;20062;-66
2023/10/08 15:55:06;;;;;;;12.60;3.47;;;28.30;34.60;;;;;;5987874;29;20444;-68
2023/10/08 15:58:07;;;;;;;7.45;3.78;;;28.20;34.60;;;;;;6004258;29;20030;-67
2023/10/08 16:01:08;;;;;;;14.15;3.05;;;28.20;34.70;;;;;;5989318;29;20528;-66
2023/10/08 16:04:09;;;;;;;6.63;2.92;;;28.20;34.80;;;;;;5981899;29;20039;-67
2023/10/08 16:07:13;;;;;;;9.02;3.28;;;28.10;34.90;;;;;;5981777;29;20514;-68
2023/10/08 16:10:14;;;;;;;11.48;3.10;;;28.00;35.00;;;;;;5982299;29;20361;-67
2023/10/08 16:13:15;;;;;;;12.43;3.13;;;28.00;35.20;;;;;;5993322;29;20074;-68
2023/10/08 16:16:16;;;;;;;9.70;2.95;;;27.90;35.30;;;;;;5965367;29;20134;-66
2023/10/08 16:19:17;;;;;;;6.35;3.20;;;27.80;35.40;;;;;;5981476;29;20518;-67
2023/10/08 16:22:18;;;;;;;7.05;3.13;;;27.80;35.50;;;;;;5981547;29;20140;-69
2023/10/08 16:25:20;;;;;;;12.82;3.67;;;27.80;35.60;;;;;;5980767;29;20430;-67
2023/10/08 16:28:21;;;;;;;12.48;3.50;;;27.70;35.70;;;;;;5981605;29;20142;-66
2023/10/08 16:31:22;;;;;;;14.43;3.85;;;27.60;35.80;;;;;;5981593;29;20034;-68
2023/10/08 16:34:22;;;;;;;9.98;4.47;;;27.50;36.00;;;;;;5981554;29;20038;-68
2023/10/08 16:37:23;;;;;;;7.65;3.80;;;27.40;36.30;;;;;;5981668;29;20032;-67
2023/10/08 16:40:24;;;;;;;12.88;3.70;;;27.40;36.70;;;;;;5980958;29;20462;-67
2023/10/08 16:43:25;;;;;;;11.52;3.70;;;27.20;36.90;;;;;;5981281;29;20046;-68
2023/10/08 16:46:32;;;;;;;9.93;3.53;;;27.10;37.40;;;;;;6235987;28;20392;-67
2023/10/08 16:49:34;;;;;;;7.65;3.50;;;27.00;37.80;;;;;;6234364;28;20065;-67
2023/10/08 16:52:34;;;;;;;10.73;3.75;;;26.90;38.20;;;;;;6235990;28;20076;-68
2023/10/08 16:55:35;;;;;;;11.15;3.50;;;26.80;38.50;;;;;;6236593;28;20033;-67
2023/10/08 16:58:36;;;;;;;7.53;3.10;;;26.70;39.40;;;;;;6235851;28;20227;-66
2023/10/08 17:01:38;;;;;;;11.68;3.25;;;26.60;39.00;;;;;;6217129;28;20113;-66
2023/10/08 17:04:39;;;;;;;8.05;3.00;;;26.50;39.10;;;;;;6209421;28;20505;-68
2023/10/08 17:07:43;;;;;;;10.07;3.35;;;26.50;39.30;;;;;;6211191;28;20049;-67
2023/10/08 17:10:44;;;;;;;6.90;3.65;;;26.40;39.50;;;;;;6232853;28;20457;-68
2023/10/08 17:13:45;;;;;;;10.35;4.53;;;26.30;39.60;;;;;;6235569;28;20092;-66
2023/10/08 17:16:46;;;;;;;15.63;3.70;;;26.30;39.80;;;;;;6235261;28;20041;-67
2023/10/08 17:19:49;;;;;;;7.30;3.08;;;26.20;40.00;;;;;;6235082;28;20042;-66